sensor_id;sensor_type;location;lat;lon;timestamp;P1;durP1;ratioP1;P2;durP2;ratioP2
4766;SDS011;2397;53.576;9.746;2022-07-06T00:01:00;2.93;;;1.70;;
4766;SDS011;2397;53.576;9.746;2022-07-06T00:03:25;2.07;;;1.87;;
4766;SDS011;2397;53.576;9.746;2022-07-06T00:05:51;4.67;;;2.30;;
4766;SDS011;2397;53.576;9.746;2022-07-06T00:08:16;4.27;;;2.10;;
4766;SDS011;2397;53.576;9.746;2022-07-06T00:10:41;6.57;;;1.77;;
4766;SDS011;2397;53.576;9.746;2022-07-06T00:13:06;2.83;;;1.97;;
4766;SDS011;2397;53.576;9.746;2022-07-06T00:15:32;5.23;;;2.33;;
4766;SDS011;2397;53.576;9.746;2022-07-06T00:17:57;5.37;;;2.17;;
4766;SDS011;2397;53.576;9.746;2022-07-06T00:20:22;5.10;;;1.67;;
4766;SDS011;2397;53.576;9.746;2022-07-06T00:22:47;2.53;;;2.33;;
4766;SDS011;2397;53.576;9.746;2022-07-06T00:25:13;3.20;;;2.17;;
4766;SDS011;2397;53.576;9.746;2022-07-06T00:27:38;2.90;;;1.63;;
4766;SDS011;2397;53.576;9.746;2022-07-06T00:30:03;0.70;;;0.60;;
4766;SDS011;2397;53.576;9.746;2022-07-06T00:32:29;0.70;;;0.60;;
4766;SDS011;2397;53.576;9.746;2022-07-06T00:34:54;0.70;;;0.60;;
4766;SDS011;2397;53.576;9.746;2022-07-06T00:37:20;0.70;;;0.60;;
4766;SDS011;2397;53.576;9.746;2022-07-06T00:39:45;0.80;;;0.80;;
4766;SDS011;2397;53.576;9.746;2022-07-06T00:42:10;0.70;;;0.60;;
4766;SDS011;2397;53.576;9.746;2022-07-06T00:44:35;0.70;;;0.60;;
4766;SDS011;2397;53.576;9.746;2022-07-06T00:47:01;0.70;;;0.60;;
4766;SDS011;2397;53.576;9.746;2022-07-06T00:49:26;0.70;;;0.60;;
4766;SDS011;2397;53.576;9.746;2022-07-06T00:52:10;0.70;;;0.60;;
4766;SDS011;2397;53.576;9.746;2022-07-06T00:54:36;0.70;;;0.60;;
4766;SDS011;2397;53.576;9.746;2022-07-06T00:57:02;0.70;;;0.60;;
4766;SDS011;2397;53.576;9.746;2022-07-06T00:59:27;0.70;;;0.60;;
4766;SDS011;2397;53.576;9.746;2022-07-06T01:01:53;0.70;;;0.60;;
4766;SDS011;2397;53.576;9.746;2022-07-06T01:04:18;0.70;;;0.60;;
4766;SDS011;2397;53.576;9.746;2022-07-06T01:06:44;0.70;;;0.60;;
4766;SDS011;2397;53.576;9.746;2022-07-06T01:09:10;0.70;;;0.60;;
4766;SDS011;2397;53.576;9.746;2022-07-06T01:11:36;0.70;;;0.60;;
4766;SDS011;2397;53.576;9.746;2022-07-06T01:14:01;0.70;;;0.60;;
4766;SDS011;2397;53.576;9.746;2022-07-06T01:16:27;0.70;;;0.60;;
4766;SDS011;2397;53.576;9.746;2022-07-06T01:18:52;1.63;;;1.30;;
4766;SDS011;2397;53.576;9.746;2022-07-06T01:21:17;0.70;;;0.60;;
4766;SDS011;2397;53.576;9.746;2022-07-06T01:23:44;0.70;;;0.60;;
4766;SDS011;2397;53.576;9.746;2022-07-06T01:26:16;0.70;;;0.60;;
4766;SDS011;2397;53.576;9.746;2022-07-06T01:28:44;0.70;;;0.60;;
4766;SDS011;2397;53.576;9.746;2022-07-06T01:31:14;0.70;;;0.60;;
4766;SDS011;2397;53.576;9.746;2022-07-06T01:33:45;0.70;;;0.60;;
4766;SDS011;2397;53.576;9.746;2022-07-06T01:36:10;4.93;;;2.20;;
4766;SDS011;2397;53.576;9.746;2022-07-06T01:38:43;6.70;;;2.77;;
4766;SDS011;2397;53.576;9.746;2022-07-06T01:41:15;5.40;;;2.40;;
4766;SDS011;2397;53.576;9.746;2022-07-06T01:43:41;4.80;;;2.47;;
4766;SDS011;2397;53.576;9.746;2022-07-06T01:46:06;6.67;;;2.33;;
4766;SDS011;2397;53.576;9.746;2022-07-06T01:48:32;4.00;;;2.63;;
4766;SDS011;2397;53.576;9.746;2022-07-06T01:50:57;2.77;;;2.23;;
4766;SDS011;2397;53.576;9.746;2022-07-06T01:53:22;3.33;;;2.17;;
4766;SDS011;2397;53.576;9.746;2022-07-06T01:55:48;3.37;;;2.20;;
4766;SDS011;2397;53.576;9.746;2022-07-06T01:58:13;3.33;;;2.30;;
4766;SDS011;2397;53.576;9.746;2022-07-06T02:00:38;11.47;;;2.50;;
4766;SDS011;2397;53.576;9.746;2022-07-06T02:03:04;4.00;;;2.13;;
4766;SDS011;2397;53.576;9.746;2022-07-06T02:05:29;12.90;;;2.93;;
4766;SDS011;2397;53.576;9.746;2022-07-06T02:07:54;3.43;;;2.10;;
4766;SDS011;2397;53.576;9.746;2022-07-06T02:10:19;7.07;;;3.33;;
4766;SDS011;2397;53.576;9.746;2022-07-06T02:12:45;4.43;;;2.30;;
4766;SDS011;2397;53.576;9.746;2022-07-06T02:15:10;3.87;;;2.60;;
4766;SDS011;2397;53.576;9.746;2022-07-06T02:17:35;3.83;;;2.70;;
4766;SDS011;2397;53.576;9.746;2022-07-06T02:20:01;6.83;;;2.60;;
4766;SDS011;2397;53.576;9.746;2022-07-06T02:22:26;4.40;;;2.50;;
4766;SDS011;2397;53.576;9.746;2022-07-06T02:24:51;7.23;;;2.57;;
4766;SDS011;2397;53.576;9.746;2022-07-06T02:27:17;4.77;;;2.40;;
4766;SDS011;2397;53.576;9.746;2022-07-06T02:29:42;3.30;;;2.10;;
4766;SDS011;2397;53.576;9.746;2022-07-06T02:32:07;6.23;;;2.43;;
4766;SDS011;2397;53.576;9.746;2022-07-06T02:34:33;5.80;;;2.77;;
4766;SDS011;2397;53.576;9.746;2022-07-06T02:36:58;4.43;;;2.50;;
4766;SDS011;2397;53.576;9.746;2022-07-06T02:39:25;3.17;;;2.53;;
4766;SDS011;2397;53.576;9.746;2022-07-06T02:41:50;3.90;;;3.00;;
4766;SDS011;2397;53.576;9.746;2022-07-06T02:44:15;6.70;;;2.70;;
4766;SDS011;2397;53.576;9.746;2022-07-06T02:46:41;4.40;;;2.30;;
4766;SDS011;2397;53.576;9.746;2022-07-06T02:49:06;4.90;;;2.80;;
4766;SDS011;2397;53.576;9.746;2022-07-06T02:51:31;2.20;;;2.10;;
4766;SDS011;2397;53.576;9.746;2022-07-06T02:53:56;10.20;;;3.00;;
4766;SDS011;2397;53.576;9.746;2022-07-06T02:56:21;4.63;;;2.20;;
4766;SDS011;2397;53.576;9.746;2022-07-06T02:58:47;5.80;;;2.43;;
4766;SDS011;2397;53.576;9.746;2022-07-06T03:01:12;5.57;;;2.53;;
4766;SDS011;2397;53.576;9.746;2022-07-06T03:03:38;7.00;;;2.70;;
4766;SDS011;2397;53.576;9.746;2022-07-06T03:06:03;3.17;;;2.70;;
4766;SDS011;2397;53.576;9.746;2022-07-06T03:08:28;5.70;;;2.97;;
4766;SDS011;2397;53.576;9.746;2022-07-06T03:10:54;8.73;;;2.60;;
4766;SDS011;2397;53.576;9.746;2022-07-06T03:13:19;4.87;;;2.20;;
4766;SDS011;2397;53.576;9.746;2022-07-06T03:15:44;5.50;;;2.40;;
4766;SDS011;2397;53.576;9.746;2022-07-06T03:18:09;9.70;;;2.80;;
4766;SDS011;2397;53.576;9.746;2022-07-06T03:20:35;4.33;;;2.10;;
4766;SDS011;2397;53.576;9.746;2022-07-06T03:23:00;7.57;;;2.70;;
4766;SDS011;2397;53.576;9.746;2022-07-06T03:25:25;4.70;;;2.23;;
4766;SDS011;2397;53.576;9.746;2022-07-06T03:27:51;7.30;;;2.30;;
4766;SDS011;2397;53.576;9.746;2022-07-06T03:30:16;3.53;;;2.00;;
4766;SDS011;2397;53.576;9.746;2022-07-06T03:32:41;9.80;;;2.27;;
4766;SDS011;2397;53.576;9.746;2022-07-06T03:35:06;5.37;;;2.57;;
4766;SDS011;2397;53.576;9.746;2022-07-06T03:37:32;6.03;;;2.10;;
4766;SDS011;2397;53.576;9.746;2022-07-06T03:39:57;4.43;;;2.20;;
4766;SDS011;2397;53.576;9.746;2022-07-06T03:42:23;4.23;;;2.20;;
4766;SDS011;2397;53.576;9.746;2022-07-06T03:44:48;7.00;;;2.03;;
4766;SDS011;2397;53.576;9.746;2022-07-06T03:47:13;2.87;;;2.30;;
4766;SDS011;2397;53.576;9.746;2022-07-06T03:49:38;7.70;;;2.53;;
4766;SDS011;2397;53.576;9.746;2022-07-06T03:52:04;2.70;;;2.30;;
4766;SDS011;2397;53.576;9.746;2022-07-06T03:54:29;3.10;;;2.80;;
4766;SDS011;2397;53.576;9.746;2022-07-06T03:56:55;5.27;;;2.30;;
4766;SDS011;2397;53.576;9.746;2022-07-06T03:59:21;5.53;;;2.60;;
4766;SDS011;2397;53.576;9.746;2022-07-06T04:01:46;4.80;;;2.30;;
4766;SDS011;2397;53.576;9.746;2022-07-06T04:04:11;5.17;;;2.40;;
4766;SDS011;2397;53.576;9.746;2022-07-06T04:06:36;5.50;;;2.20;;
4766;SDS011;2397;53.576;9.746;2022-07-06T04:09:02;4.70;;;2.13;;
4766;SDS011;2397;53.576;9.746;2022-07-06T04:11:27;10.90;;;3.00;;
4766;SDS011;2397;53.576;9.746;2022-07-06T04:13:52;3.87;;;2.43;;
4766;SDS011;2397;53.576;9.746;2022-07-06T04:16:19;11.13;;;3.23;;
4766;SDS011;2397;53.576;9.746;2022-07-06T04:18:44;4.50;;;1.90;;
4766;SDS011;2397;53.576;9.746;2022-07-06T04:21:10;7.33;;;2.20;;
4766;SDS011;2397;53.576;9.746;2022-07-06T04:23:35;2.83;;;1.90;;
4766;SDS011;2397;53.576;9.746;2022-07-06T04:26:00;3.10;;;2.17;;
4766;SDS011;2397;53.576;9.746;2022-07-06T04:28:25;2.13;;;1.70;;
4766;SDS011;2397;53.576;9.746;2022-07-06T04:30:51;4.00;;;2.23;;
4766;SDS011;2397;53.576;9.746;2022-07-06T04:33:16;5.30;;;2.00;;
4766;SDS011;2397;53.576;9.746;2022-07-06T04:35:43;7.07;;;2.00;;
4766;SDS011;2397;53.576;9.746;2022-07-06T04:38:08;6.03;;;2.13;;
4766;SDS011;2397;53.576;9.746;2022-07-06T04:40:34;6.60;;;2.60;;
4766;SDS011;2397;53.576;9.746;2022-07-06T04:42:59;3.93;;;2.10;;
4766;SDS011;2397;53.576;9.746;2022-07-06T04:45:24;8.40;;;1.90;;
4766;SDS011;2397;53.576;9.746;2022-07-06T04:47:50;3.80;;;1.80;;
4766;SDS011;2397;53.576;9.746;2022-07-06T04:50:15;2.60;;;1.90;;
4766;SDS011;2397;53.576;9.746;2022-07-06T04:52:40;3.10;;;1.77;;
4766;SDS011;2397;53.576;9.746;2022-07-06T04:55:06;4.27;;;2.17;;
4766;SDS011;2397;53.576;9.746;2022-07-06T04:57:33;7.10;;;2.70;;
4766;SDS011;2397;53.576;9.746;2022-07-06T04:59:59;5.77;;;2.37;;
4766;SDS011;2397;53.576;9.746;2022-07-06T05:02:24;2.50;;;2.17;;
4766;SDS011;2397;53.576;9.746;2022-07-06T05:04:50;3.83;;;2.23;;
4766;SDS011;2397;53.576;9.746;2022-07-06T05:07:15;3.40;;;2.10;;
4766;SDS011;2397;53.576;9.746;2022-07-06T05:09:40;7.70;;;2.30;;
4766;SDS011;2397;53.576;9.746;2022-07-06T05:12:06;4.00;;;2.10;;
4766;SDS011;2397;53.576;9.746;2022-07-06T05:14:32;5.87;;;2.37;;
4766;SDS011;2397;53.576;9.746;2022-07-06T05:16:58;4.13;;;2.27;;
4766;SDS011;2397;53.576;9.746;2022-07-06T05:19:23;7.00;;;3.10;;
4766;SDS011;2397;53.576;9.746;2022-07-06T05:21:48;5.23;;;2.30;;
4766;SDS011;2397;53.576;9.746;2022-07-06T05:24:14;3.90;;;1.90;;
4766;SDS011;2397;53.576;9.746;2022-07-06T05:26:40;3.60;;;2.00;;
4766;SDS011;2397;53.576;9.746;2022-07-06T05:29:06;3.40;;;1.90;;
4766;SDS011;2397;53.576;9.746;2022-07-06T05:31:31;5.03;;;1.90;;
4766;SDS011;2397;53.576;9.746;2022-07-06T05:33:56;2.93;;;1.60;;
4766;SDS011;2397;53.576;9.746;2022-07-06T05:36:21;5.10;;;3.83;;
4766;SDS011;2397;53.576;9.746;2022-07-06T05:38:47;4.40;;;2.10;;
4766;SDS011;2397;53.576;9.746;2022-07-06T05:41:12;6.80;;;2.10;;
4766;SDS011;2397;53.576;9.746;2022-07-06T05:43:37;2.10;;;1.57;;
4766;SDS011;2397;53.576;9.746;2022-07-06T05:46:03;3.43;;;1.70;;
4766;SDS011;2397;53.576;9.746;2022-07-06T05:48:28;5.77;;;2.10;;
4766;SDS011;2397;53.576;9.746;2022-07-06T05:51:12;8.40;;;1.80;;
4766;SDS011;2397;53.576;9.746;2022-07-06T05:53:37;5.03;;;2.07;;
4766;SDS011;2397;53.576;9.746;2022-07-06T05:56:02;3.70;;;1.90;;
4766;SDS011;2397;53.576;9.746;2022-07-06T05:58:28;5.53;;;1.70;;
4766;SDS011;2397;53.576;9.746;2022-07-06T06:00:53;2.23;;;1.60;;
4766;SDS011;2397;53.576;9.746;2022-07-06T06:03:19;4.70;;;1.83;;
4766;SDS011;2397;53.576;9.746;2022-07-06T06:05:44;3.40;;;2.20;;
4766;SDS011;2397;53.576;9.746;2022-07-06T06:08:09;3.77;;;2.10;;
4766;SDS011;2397;53.576;9.746;2022-07-06T06:10:35;8.53;;;2.70;;
4766;SDS011;2397;53.576;9.746;2022-07-06T06:13:00;4.57;;;1.87;;
4766;SDS011;2397;53.576;9.746;2022-07-06T06:15:25;3.77;;;1.93;;
4766;SDS011;2397;53.576;9.746;2022-07-06T06:17:51;4.63;;;1.83;;
4766;SDS011;2397;53.576;9.746;2022-07-06T06:20:16;2.80;;;1.57;;
4766;SDS011;2397;53.576;9.746;2022-07-06T06:22:48;6.97;;;1.90;;
4766;SDS011;2397;53.576;9.746;2022-07-06T06:25:17;3.27;;;1.93;;
4766;SDS011;2397;53.576;9.746;2022-07-06T06:27:43;4.20;;;1.90;;
4766;SDS011;2397;53.576;9.746;2022-07-06T06:30:09;5.27;;;1.80;;
4766;SDS011;2397;53.576;9.746;2022-07-06T06:32:35;4.67;;;1.97;;
4766;SDS011;2397;53.576;9.746;2022-07-06T06:35:00;4.83;;;1.87;;
4766;SDS011;2397;53.576;9.746;2022-07-06T06:37:26;1.57;;;1.40;;
4766;SDS011;2397;53.576;9.746;2022-07-06T06:39:51;3.30;;;2.00;;
4766;SDS011;2397;53.576;9.746;2022-07-06T06:42:16;2.40;;;1.40;;
4766;SDS011;2397;53.576;9.746;2022-07-06T06:44:42;3.97;;;1.77;;
4766;SDS011;2397;53.576;9.746;2022-07-06T06:47:07;9.50;;;2.23;;
4766;SDS011;2397;53.576;9.746;2022-07-06T06:49:32;3.37;;;1.63;;
4766;SDS011;2397;53.576;9.746;2022-07-06T06:51:57;3.43;;;1.73;;
4766;SDS011;2397;53.576;9.746;2022-07-06T06:54:23;3.03;;;1.80;;
4766;SDS011;2397;53.576;9.746;2022-07-06T06:56:48;2.63;;;1.50;;
4766;SDS011;2397;53.576;9.746;2022-07-06T06:59:13;2.23;;;1.60;;
4766;SDS011;2397;53.576;9.746;2022-07-06T07:01:38;4.47;;;2.03;;
4766;SDS011;2397;53.576;9.746;2022-07-06T07:04:04;6.30;;;1.37;;
4766;SDS011;2397;53.576;9.746;2022-07-06T07:06:29;6.80;;;1.60;;
4766;SDS011;2397;53.576;9.746;2022-07-06T07:08:54;3.47;;;1.60;;
4766;SDS011;2397;53.576;9.746;2022-07-06T07:11:21;3.90;;;1.53;;
4766;SDS011;2397;53.576;9.746;2022-07-06T07:13:46;4.70;;;1.70;;
4766;SDS011;2397;53.576;9.746;2022-07-06T07:16:11;2.00;;;1.60;;
4766;SDS011;2397;53.576;9.746;2022-07-06T07:18:36;4.47;;;1.47;;
4766;SDS011;2397;53.576;9.746;2022-07-06T07:21:02;2.83;;;1.50;;
4766;SDS011;2397;53.576;9.746;2022-07-06T07:23:27;1.50;;;1.20;;
4766;SDS011;2397;53.576;9.746;2022-07-06T07:25:53;1.40;;;1.23;;
4766;SDS011;2397;53.576;9.746;2022-07-06T07:28:18;3.03;;;1.50;;
4766;SDS011;2397;53.576;9.746;2022-07-06T07:30:43;3.47;;;1.60;;
4766;SDS011;2397;53.576;9.746;2022-07-06T07:33:08;4.57;;;1.80;;
4766;SDS011;2397;53.576;9.746;2022-07-06T07:35:34;5.43;;;2.33;;
4766;SDS011;2397;53.576;9.746;2022-07-06T07:37:59;1.40;;;1.00;;
4766;SDS011;2397;53.576;9.746;2022-07-06T07:40:24;2.27;;;1.00;;
4766;SDS011;2397;53.576;9.746;2022-07-06T07:42:49;1.40;;;1.20;;
4766;SDS011;2397;53.576;9.746;2022-07-06T07:45:15;2.07;;;1.10;;
4766;SDS011;2397;53.576;9.746;2022-07-06T07:47:41;1.40;;;1.30;;
4766;SDS011;2397;53.576;9.746;2022-07-06T07:50:07;2.60;;;1.43;;
4766;SDS011;2397;53.576;9.746;2022-07-06T07:52:32;1.30;;;1.17;;
4766;SDS011;2397;53.576;9.746;2022-07-06T07:54:58;2.33;;;0.90;;
4766;SDS011;2397;53.576;9.746;2022-07-06T07:57:23;2.20;;;1.17;;
4766;SDS011;2397;53.576;9.746;2022-07-06T07:59:48;4.20;;;1.57;;
4766;SDS011;2397;53.576;9.746;2022-07-06T08:02:13;2.43;;;1.70;;
4766;SDS011;2397;53.576;9.746;2022-07-06T08:04:39;3.83;;;1.13;;
4766;SDS011;2397;53.576;9.746;2022-07-06T08:07:04;5.23;;;2.13;;
4766;SDS011;2397;53.576;9.746;2022-07-06T08:09:29;2.10;;;1.83;;
4766;SDS011;2397;53.576;9.746;2022-07-06T08:11:55;4.00;;;1.90;;
4766;SDS011;2397;53.576;9.746;2022-07-06T08:14:20;4.67;;;2.10;;
4766;SDS011;2397;53.576;9.746;2022-07-06T08:16:45;4.13;;;1.90;;
4766;SDS011;2397;53.576;9.746;2022-07-06T08:19:11;6.03;;;2.30;;
4766;SDS011;2397;53.576;9.746;2022-07-06T08:21:40;5.63;;;2.10;;
4766;SDS011;2397;53.576;9.746;2022-07-06T08:24:06;2.43;;;1.87;;
4766;SDS011;2397;53.576;9.746;2022-07-06T08:26:31;5.43;;;2.10;;
4766;SDS011;2397;53.576;9.746;2022-07-06T08:28:56;4.40;;;2.30;;
4766;SDS011;2397;53.576;9.746;2022-07-06T08:31:22;8.43;;;2.50;;
4766;SDS011;2397;53.576;9.746;2022-07-06T08:33:47;3.33;;;2.60;;
4766;SDS011;2397;53.576;9.746;2022-07-06T08:36:13;2.40;;;2.20;;
4766;SDS011;2397;53.576;9.746;2022-07-06T08:38:39;5.80;;;2.47;;
4766;SDS011;2397;53.576;9.746;2022-07-06T08:41:04;5.17;;;2.00;;
4766;SDS011;2397;53.576;9.746;2022-07-06T08:43:32;8.80;;;2.67;;
4766;SDS011;2397;53.576;9.746;2022-07-06T08:45:58;2.93;;;2.20;;
4766;SDS011;2397;53.576;9.746;2022-07-06T08:48:24;2.13;;;2.03;;
4766;SDS011;2397;53.576;9.746;2022-07-06T08:50:54;3.60;;;2.07;;
4766;SDS011;2397;53.576;9.746;2022-07-06T08:53:20;3.47;;;2.80;;
4766;SDS011;2397;53.576;9.746;2022-07-06T08:55:47;2.70;;;2.13;;
4766;SDS011;2397;53.576;9.746;2022-07-06T08:58:13;7.13;;;2.10;;
4766;SDS011;2397;53.576;9.746;2022-07-06T09:00:39;5.43;;;2.10;;
4766;SDS011;2397;53.576;9.746;2022-07-06T09:03:05;2.57;;;2.37;;
4766;SDS011;2397;53.576;9.746;2022-07-06T09:05:32;2.30;;;2.00;;
4766;SDS011;2397;53.576;9.746;2022-07-06T09:07:57;3.20;;;2.17;;
4766;SDS011;2397;53.576;9.746;2022-07-06T09:10:23;7.27;;;1.87;;
4766;SDS011;2397;53.576;9.746;2022-07-06T09:12:49;3.00;;;1.80;;
4766;SDS011;2397;53.576;9.746;2022-07-06T09:15:14;2.83;;;1.90;;
4766;SDS011;2397;53.576;9.746;2022-07-06T09:17:40;2.57;;;1.63;;
4766;SDS011;2397;53.576;9.746;2022-07-06T09:20:08;3.83;;;1.50;;
4766;SDS011;2397;53.576;9.746;2022-07-06T09:22:34;3.17;;;1.80;;
4766;SDS011;2397;53.576;9.746;2022-07-06T09:27:38;3.40;;;1.63;;
4766;SDS011;2397;53.576;9.746;2022-07-06T09:30:12;3.83;;;1.23;;
4766;SDS011;2397;53.576;9.746;2022-07-06T09:32:40;3.77;;;1.47;;
4766;SDS011;2397;53.576;9.746;2022-07-06T09:35:07;3.00;;;1.40;;
4766;SDS011;2397;53.576;9.746;2022-07-06T09:37:32;2.53;;;1.60;;
4766;SDS011;2397;53.576;9.746;2022-07-06T09:39:58;2.17;;;1.30;;
4766;SDS011;2397;53.576;9.746;2022-07-06T09:42:26;1.80;;;1.63;;
4766;SDS011;2397;53.576;9.746;2022-07-06T09:44:53;3.93;;;1.60;;
4766;SDS011;2397;53.576;9.746;2022-07-06T09:47:20;1.77;;;1.30;;
4766;SDS011;2397;53.576;9.746;2022-07-06T09:49:46;1.87;;;1.30;;
4766;SDS011;2397;53.576;9.746;2022-07-06T09:52:12;2.83;;;1.37;;
4766;SDS011;2397;53.576;9.746;2022-07-06T09:54:38;3.03;;;1.60;;
4766;SDS011;2397;53.576;9.746;2022-07-06T09:57:04;2.67;;;1.43;;
4766;SDS011;2397;53.576;9.746;2022-07-06T09:59:31;2.20;;;1.70;;
4766;SDS011;2397;53.576;9.746;2022-07-06T10:02:01;3.57;;;1.63;;
4766;SDS011;2397;53.576;9.746;2022-07-06T10:04:28;3.53;;;1.70;;
4766;SDS011;2397;53.576;9.746;2022-07-06T10:06:55;4.00;;;1.33;;
4766;SDS011;2397;53.576;9.746;2022-07-06T10:09:21;1.30;;;1.20;;
4766;SDS011;2397;53.576;9.746;2022-07-06T10:11:50;2.00;;;1.50;;
4766;SDS011;2397;53.576;9.746;2022-07-06T10:14:20;3.37;;;1.80;;
4766;SDS011;2397;53.576;9.746;2022-07-06T10:16:47;2.53;;;1.40;;
4766;SDS011;2397;53.576;9.746;2022-07-06T10:19:13;1.63;;;1.30;;
4766;SDS011;2397;53.576;9.746;2022-07-06T10:21:39;2.50;;;1.20;;
4766;SDS011;2397;53.576;9.746;2022-07-06T10:24:05;1.40;;;1.00;;
4766;SDS011;2397;53.576;9.746;2022-07-06T10:26:32;2.17;;;1.10;;
4766;SDS011;2397;53.576;9.746;2022-07-06T10:28:59;1.20;;;1.10;;
4766;SDS011;2397;53.576;9.746;2022-07-06T10:31:28;2.27;;;1.60;;
4766;SDS011;2397;53.576;9.746;2022-07-06T10:33:55;1.60;;;1.17;;
4766;SDS011;2397;53.576;9.746;2022-07-06T10:36:22;3.77;;;1.77;;
4766;SDS011;2397;53.576;9.746;2022-07-06T10:38:49;2.80;;;1.53;;
4766;SDS011;2397;53.576;9.746;2022-07-06T10:41:15;4.33;;;1.80;;
4766;SDS011;2397;53.576;9.746;2022-07-06T10:43:44;1.77;;;1.63;;
4766;SDS011;2397;53.576;9.746;2022-07-06T10:48:39;1.30;;;1.20;;
4766;SDS011;2397;53.576;9.746;2022-07-06T10:51:08;2.40;;;1.67;;
4766;SDS011;2397;53.576;9.746;2022-07-06T10:53:36;2.97;;;1.40;;
4766;SDS011;2397;53.576;9.746;2022-07-06T10:56:06;1.60;;;1.33;;
4766;SDS011;2397;53.576;9.746;2022-07-06T10:58:49;1.30;;;1.20;;
4766;SDS011;2397;53.576;9.746;2022-07-06T11:01:17;5.63;;;1.40;;
4766;SDS011;2397;53.576;9.746;2022-07-06T11:06:19;2.90;;;1.40;;
4766;SDS011;2397;53.576;9.746;2022-07-06T11:08:47;5.77;;;1.77;;
4766;SDS011;2397;53.576;9.746;2022-07-06T11:11:39;13.37;;;2.37;;
4766;SDS011;2397;53.576;9.746;2022-07-06T11:16:37;2.43;;;1.30;;
4766;SDS011;2397;53.576;9.746;2022-07-06T11:19:10;2.77;;;1.73;;
4766;SDS011;2397;53.576;9.746;2022-07-06T11:24:09;3.90;;;1.37;;
4766;SDS011;2397;53.576;9.746;2022-07-06T11:26:35;2.90;;;1.30;;
4766;SDS011;2397;53.576;9.746;2022-07-06T11:29:04;4.03;;;1.33;;
4766;SDS011;2397;53.576;9.746;2022-07-06T11:31:35;6.23;;;1.40;;
4766;SDS011;2397;53.576;9.746;2022-07-06T11:34:04;4.40;;;1.40;;
4766;SDS011;2397;53.576;9.746;2022-07-06T11:36:30;3.13;;;1.20;;
4766;SDS011;2397;53.576;9.746;2022-07-06T11:38:56;2.10;;;1.10;;
4766;SDS011;2397;53.576;9.746;2022-07-06T11:41:22;9.70;;;1.50;;
4766;SDS011;2397;53.576;9.746;2022-07-06T11:43:47;2.63;;;1.20;;
4766;SDS011;2397;53.576;9.746;2022-07-06T11:48:58;2.30;;;1.17;;
4766;SDS011;2397;53.576;9.746;2022-07-06T11:51:25;4.87;;;1.43;;
4766;SDS011;2397;53.576;9.746;2022-07-06T11:53:53;2.83;;;1.00;;
4766;SDS011;2397;53.576;9.746;2022-07-06T11:56:21;3.50;;;1.17;;
4766;SDS011;2397;53.576;9.746;2022-07-06T11:58:50;7.13;;;1.37;;
4766;SDS011;2397;53.576;9.746;2022-07-06T12:01:15;3.10;;;1.10;;
4766;SDS011;2397;53.576;9.746;2022-07-06T12:03:44;3.87;;;1.70;;
4766;SDS011;2397;53.576;9.746;2022-07-06T12:06:14;4.70;;;1.20;;
4766;SDS011;2397;53.576;9.746;2022-07-06T12:08:42;1.53;;;0.90;;
4766;SDS011;2397;53.576;9.746;2022-07-06T12:11:08;4.40;;;1.27;;
4766;SDS011;2397;53.576;9.746;2022-07-06T12:13:38;1.60;;;1.20;;
4766;SDS011;2397;53.576;9.746;2022-07-06T12:16:09;2.73;;;1.40;;
4766;SDS011;2397;53.576;9.746;2022-07-06T12:18:36;4.83;;;1.53;;
4766;SDS011;2397;53.576;9.746;2022-07-06T12:21:03;2.97;;;1.63;;
4766;SDS011;2397;53.576;9.746;2022-07-06T12:23:37;2.00;;;1.33;;
4766;SDS011;2397;53.576;9.746;2022-07-06T12:26:07;1.77;;;1.30;;
4766;SDS011;2397;53.576;9.746;2022-07-06T12:28:33;2.20;;;1.10;;
4766;SDS011;2397;53.576;9.746;2022-07-06T12:30:58;3.50;;;1.10;;
4766;SDS011;2397;53.576;9.746;2022-07-06T12:33:24;3.73;;;1.07;;
4766;SDS011;2397;53.576;9.746;2022-07-06T12:35:49;1.23;;;0.93;;
4766;SDS011;2397;53.576;9.746;2022-07-06T12:38:25;2.83;;;0.93;;
4766;SDS011;2397;53.576;9.746;2022-07-06T12:40:52;2.83;;;1.03;;
4766;SDS011;2397;53.576;9.746;2022-07-06T12:43:37;5.30;;;1.20;;
4766;SDS011;2397;53.576;9.746;2022-07-06T12:46:22;2.03;;;1.00;;
4766;SDS011;2397;53.576;9.746;2022-07-06T12:48:51;2.10;;;1.07;;
4766;SDS011;2397;53.576;9.746;2022-07-06T12:51:17;2.97;;;1.13;;
4766;SDS011;2397;53.576;9.746;2022-07-06T12:53:43;1.10;;;1.00;;
4766;SDS011;2397;53.576;9.746;2022-07-06T12:56:09;2.60;;;1.30;;
4766;SDS011;2397;53.576;9.746;2022-07-06T12:58:38;4.00;;;1.20;;
4766;SDS011;2397;53.576;9.746;2022-07-06T13:01:03;2.30;;;1.17;;
4766;SDS011;2397;53.576;9.746;2022-07-06T13:03:37;3.10;;;1.07;;
4766;SDS011;2397;53.576;9.746;2022-07-06T13:06:04;0.80;;;0.80;;
4766;SDS011;2397;53.576;9.746;2022-07-06T13:08:30;5.73;;;1.20;;
4766;SDS011;2397;53.576;9.746;2022-07-06T13:10:55;2.10;;;0.93;;
4766;SDS011;2397;53.576;9.746;2022-07-06T13:13:20;1.20;;;1.00;;
4766;SDS011;2397;53.576;9.746;2022-07-06T13:15:47;2.30;;;0.80;;
4766;SDS011;2397;53.576;9.746;2022-07-06T13:18:12;2.40;;;1.13;;
4766;SDS011;2397;53.576;9.746;2022-07-06T13:20:37;2.20;;;1.03;;
4766;SDS011;2397;53.576;9.746;2022-07-06T13:23:03;4.00;;;1.20;;
4766;SDS011;2397;53.576;9.746;2022-07-06T13:25:28;2.10;;;1.00;;
4766;SDS011;2397;53.576;9.746;2022-07-06T13:27:53;1.27;;;1.07;;
4766;SDS011;2397;53.576;9.746;2022-07-06T13:30:18;3.53;;;0.80;;
4766;SDS011;2397;53.576;9.746;2022-07-06T13:32:44;4.57;;;1.23;;
4766;SDS011;2397;53.576;9.746;2022-07-06T13:35:09;1.70;;;0.90;;
4766;SDS011;2397;53.576;9.746;2022-07-06T13:37:34;2.50;;;1.23;;
4766;SDS011;2397;53.576;9.746;2022-07-06T13:40:00;4.00;;;0.93;;
4766;SDS011;2397;53.576;9.746;2022-07-06T13:42:25;2.60;;;1.00;;
4766;SDS011;2397;53.576;9.746;2022-07-06T13:44:50;1.87;;;1.00;;
4766;SDS011;2397;53.576;9.746;2022-07-06T13:47:15;1.53;;;1.10;;
4766;SDS011;2397;53.576;9.746;2022-07-06T13:49:41;2.87;;;1.13;;
4766;SDS011;2397;53.576;9.746;2022-07-06T13:52:07;2.00;;;1.00;;
4766;SDS011;2397;53.576;9.746;2022-07-06T13:54:33;1.77;;;1.00;;
4766;SDS011;2397;53.576;9.746;2022-07-06T13:57:02;2.33;;;1.53;;
4766;SDS011;2397;53.576;9.746;2022-07-06T13:59:29;1.73;;;1.10;;
4766;SDS011;2397;53.576;9.746;2022-07-06T14:01:54;3.07;;;1.20;;
4766;SDS011;2397;53.576;9.746;2022-07-06T14:04:20;4.50;;;1.30;;
4766;SDS011;2397;53.576;9.746;2022-07-06T14:06:45;1.80;;;0.90;;
4766;SDS011;2397;53.576;9.746;2022-07-06T14:09:10;1.00;;;0.90;;
4766;SDS011;2397;53.576;9.746;2022-07-06T14:11:36;1.90;;;0.90;;
4766;SDS011;2397;53.576;9.746;2022-07-06T14:14:01;9.90;;;1.20;;
4766;SDS011;2397;53.576;9.746;2022-07-06T14:16:26;2.00;;;1.10;;
4766;SDS011;2397;53.576;9.746;2022-07-06T14:18:52;2.60;;;1.20;;
4766;SDS011;2397;53.576;9.746;2022-07-06T14:21:17;1.67;;;1.00;;
4766;SDS011;2397;53.576;9.746;2022-07-06T14:23:42;3.03;;;1.00;;
4766;SDS011;2397;53.576;9.746;2022-07-06T14:26:08;2.00;;;1.00;;
4766;SDS011;2397;53.576;9.746;2022-07-06T14:28:33;2.17;;;1.00;;
4766;SDS011;2397;53.576;9.746;2022-07-06T14:30:58;2.03;;;1.00;;
4766;SDS011;2397;53.576;9.746;2022-07-06T14:33:26;1.93;;;1.17;;
4766;SDS011;2397;53.576;9.746;2022-07-06T14:35:51;1.77;;;1.10;;
4766;SDS011;2397;53.576;9.746;2022-07-06T14:38:17;2.20;;;1.20;;
4766;SDS011;2397;53.576;9.746;2022-07-06T14:40:43;2.30;;;1.00;;
4766;SDS011;2397;53.576;9.746;2022-07-06T14:43:08;1.97;;;1.47;;
4766;SDS011;2397;53.576;9.746;2022-07-06T14:45:34;2.90;;;1.00;;
4766;SDS011;2397;53.576;9.746;2022-07-06T14:48:01;2.33;;;1.00;;
4766;SDS011;2397;53.576;9.746;2022-07-06T14:50:27;1.70;;;1.33;;
4766;SDS011;2397;53.576;9.746;2022-07-06T14:52:52;2.00;;;1.00;;
4766;SDS011;2397;53.576;9.746;2022-07-06T14:55:18;1.33;;;0.97;;
4766;SDS011;2397;53.576;9.746;2022-07-06T14:57:43;5.23;;;1.20;;
4766;SDS011;2397;53.576;9.746;2022-07-06T15:00:09;4.40;;;1.20;;
4766;SDS011;2397;53.576;9.746;2022-07-06T15:02:35;2.73;;;1.10;;
4766;SDS011;2397;53.576;9.746;2022-07-06T15:05:00;4.20;;;1.50;;
4766;SDS011;2397;53.576;9.746;2022-07-06T15:07:26;5.13;;;1.73;;
4766;SDS011;2397;53.576;9.746;2022-07-06T15:09:51;1.20;;;1.10;;
4766;SDS011;2397;53.576;9.746;2022-07-06T15:12:16;2.70;;;1.50;;
4766;SDS011;2397;53.576;9.746;2022-07-06T15:14:42;2.87;;;1.40;;
4766;SDS011;2397;53.576;9.746;2022-07-06T15:17:07;3.67;;;1.17;;
4766;SDS011;2397;53.576;9.746;2022-07-06T15:19:32;3.27;;;1.20;;
4766;SDS011;2397;53.576;9.746;2022-07-06T15:21:58;1.50;;;1.20;;
4766;SDS011;2397;53.576;9.746;2022-07-06T15:24:23;2.63;;;1.10;;